createdAt,value
2015-12-11T00:00:02.607Z,74517
2015-12-11T00:00:14.967Z,74500
2015-12-11T00:00:27.329Z,74504
2015-12-11T00:00:39.688Z,74504
2015-12-11T00:00:52.048Z,74513
2015-12-11T00:01:04.391Z,74509
2015-12-11T00:01:16.766Z,74502
2015-12-11T00:01:29.113Z,74499
2015-12-11T00:01:41.473Z,74506
2015-12-11T00:01:53.848Z,74513
2015-12-11T00:02:06.207Z,74516
2015-12-11T00:02:18.582Z,74524
2015-12-11T00:02:30.975Z,74524
2015-12-11T00:02:43.350Z,74524
2015-12-11T00:02:55.740Z,74522
2015-12-11T00:03:08.115Z,74530
2015-12-11T00:03:20.521Z,74533
2015-12-11T00:03:32.931Z,74523
2015-12-11T00:03:45.321Z,74520
2015-12-11T00:03:57.696Z,74534
2015-12-11T00:04:10.056Z,74531
2015-12-11T00:04:22.415Z,74526
2015-12-11T00:04:34.776Z,74538
2015-12-11T00:04:47.136Z,74535
2015-12-11T00:04:59.495Z,74531
2015-12-11T00:05:11.855Z,74521
2015-12-11T00:05:24.214Z,74527
2015-12-11T00:05:36.593Z,74527
2015-12-11T00:05:48.968Z,74527
2015-12-11T00:06:01.327Z,74533
2015-12-11T00:06:13.687Z,74525
2015-12-11T00:06:26.046Z,74522
2015-12-11T00:06:38.392Z,74518
2015-12-11T00:06:50.751Z,74524
2015-12-11T00:07:03.142Z,74532
2015-12-11T00:07:15.517Z,74531
2015-12-11T00:07:27.876Z,74528
2015-12-11T00:07:40.255Z,74530
2015-12-11T00:07:52.630Z,74526
2015-12-11T00:08:05.021Z,74520
2015-12-11T00:08:17.411Z,74505
2015-12-11T00:08:29.802Z,74506
2015-12-11T00:08:42.195Z,74519
2015-12-11T00:08:54.585Z,74530
2015-12-11T00:09:06.976Z,74533
2015-12-11T00:09:19.382Z,74524
2015-12-11T00:09:31.726Z,74524
2015-12-11T00:09:44.088Z,74526
2015-12-11T00:09:56.448Z,74533
2015-12-11T00:10:08.791Z,74518
2015-12-11T00:10:21.260Z,74518
2015-12-11T00:10:33.620Z,74522
2015-12-11T00:10:45.982Z,74525
2015-12-11T00:10:58.357Z,74526
2015-12-11T00:11:10.716Z,74524
2015-12-11T00:11:23.076Z,74522
2015-12-11T00:11:35.451Z,74516
2015-12-11T00:11:47.812Z,74515
2015-12-11T00:12:00.156Z,74521
2015-12-11T00:12:11.812Z,74528
2015-12-11T00:12:24.187Z,74530
2015-12-11T00:12:36.562Z,74530
2015-12-11T00:12:48.940Z,74540
2015-12-11T00:13:01.299Z,74536
2015-12-11T00:13:13.706Z,74532
2015-12-11T00:13:26.081Z,74523
2015-12-11T00:13:38.503Z,74522
2015-12-11T00:13:50.895Z,74515
2015-12-11T00:14:03.286Z,74515
2015-12-11T00:14:15.676Z,74520
2015-12-11T00:14:28.067Z,74526
2015-12-11T00:14:40.489Z,74526
2015-12-11T00:14:52.836Z,74520
2015-12-11T00:15:05.211Z,74505
2015-12-11T00:15:17.570Z,74513
2015-12-11T00:15:29.929Z,74524
2015-12-11T00:15:42.289Z,74533
2015-12-11T00:15:54.667Z,74541
2015-12-11T00:16:07.026Z,74530
2015-12-11T00:16:19.370Z,74532
2015-12-11T00:16:31.729Z,74520
2015-12-11T00:16:44.104Z,74518
2015-12-11T00:16:56.467Z,74529
2015-12-11T00:17:08.826Z,74523
2015-12-11T00:17:21.170Z,74527
2015-12-11T00:17:33.389Z,74528
2015-12-11T00:17:45.748Z,74522
2015-12-11T00:17:58.126Z,74515
2015-12-11T00:18:10.485Z,74521
2015-12-11T00:18:22.860Z,74525
2015-12-11T00:18:35.235Z,74535
2015-12-11T00:18:47.657Z,74531
2015-12-11T00:19:00.035Z,74531
2015-12-11T00:19:12.441Z,74532
2015-12-11T00:19:24.816Z,74529
2015-12-11T00:19:37.223Z,74523
2015-12-11T00:19:49.613Z,74524
2015-12-11T00:20:02.022Z,74533
2015-12-11T00:20:14.365Z,74529
2015-12-11T00:20:26.725Z,74523
2015-12-11T00:20:39.084Z,74524
2015-12-11T00:20:51.443Z,74529
2015-12-11T00:21:03.806Z,74546
2015-12-11T00:21:16.165Z,74543
2015-12-11T00:21:28.525Z,74529
2015-12-11T00:21:40.884Z,74529
2015-12-11T00:21:53.243Z,74533
2015-12-11T00:22:05.606Z,74536
2015-12-11T00:22:17.965Z,74543
2015-12-11T00:22:30.324Z,74534
2015-12-11T00:22:42.684Z,74537
2015-12-11T00:22:55.043Z,74538
2015-12-11T00:23:07.405Z,74541
2015-12-11T00:23:19.811Z,74546
2015-12-11T00:23:32.170Z,74535
2015-12-11T00:23:44.545Z,74524
2015-12-11T00:23:56.920Z,74533
2015-12-11T00:24:09.314Z,74535
2015-12-11T00:24:21.704Z,74540
2015-12-11T00:24:34.126Z,74510
2015-12-11T00:24:46.501Z,74515
2015-12-11T00:24:58.908Z,74514
2015-12-11T00:25:11.301Z,74510
2015-12-11T00:25:23.676Z,74502
2015-12-11T00:25:36.082Z,74516
2015-12-11T00:25:48.442Z,74523
2015-12-11T00:26:00.801Z,74532
2015-12-11T00:26:13.164Z,74531
2015-12-11T00:26:25.523Z,74523
2015-12-11T00:26:37.882Z,74509
2015-12-11T00:26:50.226Z,74507
2015-12-11T00:27:02.570Z,74509
2015-12-11T00:27:14.916Z,74514
2015-12-11T00:27:27.259Z,74517
2015-12-11T00:27:39.634Z,74528
2015-12-11T00:27:51.994Z,74534
2015-12-11T00:28:04.353Z,74546
2015-12-11T00:28:16.559Z,74540
2015-12-11T00:28:28.934Z,74539
2015-12-11T00:28:41.294Z,74531
2015-12-11T00:28:53.669Z,74524
2015-12-11T00:29:06.028Z,74515
2015-12-11T00:29:18.406Z,74523
2015-12-11T00:29:30.797Z,74530
2015-12-11T00:29:43.187Z,74523
2015-12-11T00:29:55.562Z,74522
2015-12-11T00:30:07.984Z,74526
2015-12-11T00:30:20.378Z,74535
2015-12-11T00:30:32.753Z,74534
2015-12-11T00:30:45.143Z,74526
2015-12-11T00:30:57.534Z,74533
2015-12-11T00:31:09.893Z,74521
2015-12-11T00:31:22.256Z,74513
2015-12-11T00:31:34.615Z,74520
2015-12-11T00:31:46.959Z,74531
2015-12-11T00:31:59.334Z,74523
2015-12-11T00:32:11.693Z,74529
2015-12-11T00:32:24.055Z,74537
2015-12-11T00:32:36.414Z,74524
2015-12-11T00:32:48.773Z,74530
2015-12-11T00:33:01.133Z,74525
2015-12-11T00:33:13.492Z,74517
2015-12-11T00:33:25.854Z,74526
2015-12-11T00:33:38.214Z,74525
2015-12-11T00:33:50.604Z,74522
2015-12-11T00:34:02.995Z,74523
2015-12-11T00:34:15.370Z,74522
2015-12-11T00:34:27.014Z,74521
2015-12-11T00:34:39.389Z,74534
2015-12-11T00:34:51.764Z,74523
2015-12-11T00:35:04.154Z,74514
2015-12-11T00:35:16.529Z,74519
2015-12-11T00:35:28.922Z,74515
2015-12-11T00:35:41.313Z,74513
2015-12-11T00:35:53.672Z,74515
2015-12-11T00:36:06.031Z,74520
2015-12-11T00:36:17.672Z,74526
2015-12-11T00:36:30.034Z,74527
2015-12-11T00:36:42.394Z,74525
2015-12-11T00:36:54.753Z,74510
2015-12-11T00:37:07.097Z,74512
2015-12-11T00:37:19.456Z,74519
2015-12-11T00:37:31.819Z,74515
2015-12-11T00:37:43.459Z,74526
2015-12-11T00:37:55.803Z,74525
2015-12-11T00:38:08.162Z,74529
2015-12-11T00:38:20.522Z,74532
2015-12-11T00:38:32.884Z,74539
2015-12-11T00:38:45.259Z,74535
2015-12-11T00:38:57.634Z,74522
2015-12-11T00:39:10.009Z,74515
2015-12-11T00:39:22.368Z,74512
2015-12-11T00:39:34.762Z,74520
2015-12-11T00:39:47.153Z,74526
2015-12-11T00:39:59.543Z,74530
2015-12-11T00:40:11.918Z,74532
2015-12-11T00:40:24.309Z,74533
2015-12-11T00:40:36.702Z,74529
2015-12-11T00:40:49.092Z,74521
2015-12-11T00:41:00.780Z,74519
2015-12-11T00:41:13.139Z,74520
2015-12-11T00:41:25.498Z,74515
2015-12-11T00:41:37.861Z,74506
2015-12-11T00:41:50.220Z,74514
2015-12-11T00:42:02.580Z,74516
2015-12-11T00:42:14.923Z,74526
2015-12-11T00:42:27.298Z,74525
2015-12-11T00:42:39.661Z,74524
2015-12-11T00:42:52.020Z,74512
2015-12-11T00:43:04.395Z,74519
2015-12-11T00:43:16.770Z,74508
2015-12-11T00:43:29.129Z,74511
2015-12-11T00:43:41.492Z,74519
2015-12-11T00:43:53.851Z,74522
2015-12-11T00:44:06.086Z,74517
2015-12-11T00:44:18.476Z,74505
2015-12-11T00:44:30.851Z,74505
2015-12-11T00:44:43.056Z,74511
2015-12-11T00:44:55.447Z,74525
2015-12-11T00:45:07.838Z,74517
2015-12-11T00:45:20.228Z,74523
2015-12-11T00:45:32.634Z,74523
2015-12-11T00:45:44.997Z,74523
2015-12-11T00:45:57.356Z,74520
2015-12-11T00:46:09.716Z,74517
2015-12-11T00:46:22.075Z,74519
2015-12-11T00:46:34.434Z,74520
2015-12-11T00:46:46.797Z,74501
2015-12-11T00:46:59.156Z,74487
2015-12-11T00:47:11.515Z,74507
2015-12-11T00:47:23.875Z,74502
2015-12-11T00:47:36.250Z,74504
2015-12-11T00:47:48.611Z,74516
2015-12-11T00:48:00.971Z,74514
2015-12-11T00:48:13.330Z,74519
2015-12-11T00:48:25.689Z,74514
2015-12-11T00:48:38.064Z,74485
2015-12-11T00:48:50.442Z,74491
2015-12-11T00:49:02.817Z,74491
2015-12-11T00:49:15.208Z,74487
2015-12-11T00:49:27.599Z,74493
2015-12-11T00:49:39.989Z,74488
2015-12-11T00:49:51.680Z,74493
2015-12-11T00:50:04.070Z,74503
2015-12-11T00:50:16.445Z,74512
2015-12-11T00:50:28.852Z,74510
2015-12-11T00:50:41.242Z,74511
2015-12-11T00:50:53.651Z,74507
2015-12-11T00:51:06.011Z,74508
2015-12-11T00:51:17.667Z,74493
2015-12-11T00:51:30.026Z,74501
2015-12-11T00:51:42.386Z,74510
2015-12-11T00:51:54.747Z,74516
2015-12-11T00:52:07.107Z,74521
2015-12-11T00:52:19.466Z,74517
2015-12-11T00:52:31.825Z,74512
2015-12-11T00:52:44.200Z,74514
2015-12-11T00:52:56.844Z,74501
2015-12-11T00:53:09.203Z,74502
2015-12-11T00:53:21.563Z,74503
2015-12-11T00:53:33.922Z,74494
2015-12-11T00:53:46.281Z,74508
2015-12-11T00:53:58.644Z,74511
2015-12-11T00:54:11.019Z,74515
2015-12-11T00:54:23.394Z,74524
2015-12-11T00:54:35.753Z,74528
2015-12-11T00:54:48.128Z,74542
2015-12-11T00:55:00.522Z,74533
2015-12-11T00:55:12.912Z,74526
2015-12-11T00:55:25.287Z,74508
2015-12-11T00:55:37.662Z,74496
2015-12-11T00:55:50.037Z,74491
2015-12-11T00:56:02.415Z,74498
2015-12-11T00:56:14.806Z,74501
2015-12-11T00:56:27.181Z,74512
2015-12-11T00:56:39.572Z,74513
2015-12-11T00:56:51.965Z,74511
2015-12-11T00:57:04.168Z,74508
2015-12-11T00:57:16.528Z,74515
2015-12-11T00:57:28.903Z,74516
2015-12-11T00:57:41.262Z,74520
2015-12-11T00:57:53.608Z,74519
2015-12-11T00:58:05.967Z,74509
2015-12-11T00:58:18.342Z,74500
2015-12-11T00:58:30.702Z,74499
2015-12-11T00:58:43.061Z,74503
2015-12-11T00:58:55.267Z,74509
2015-12-11T00:59:07.627Z,74511
2015-12-11T00:59:19.986Z,74513
2015-12-11T00:59:32.345Z,74509
2015-12-11T00:59:44.705Z,74515
2015-12-11T00:59:57.083Z,74520
2015-12-11T01:00:09.458Z,74522
2015-12-11T01:00:21.833Z,74522
2015-12-11T01:00:34.239Z,74521
2015-12-11T01:00:46.630Z,74525
2015-12-11T01:00:59.039Z,74519
2015-12-11T01:01:11.429Z,74503
2015-12-11T01:01:23.836Z,74507
2015-12-11T01:01:36.211Z,74505
2015-12-11T01:01:48.601Z,74512
2015-12-11T01:02:00.994Z,74509
2015-12-11T01:02:13.416Z,74501
2015-12-11T01:02:25.775Z,74506
2015-12-11T01:02:38.135Z,74506
2015-12-11T01:02:50.494Z,74506
2015-12-11T01:03:02.856Z,74513
2015-12-11T01:03:15.200Z,74521
2015-12-11T01:03:27.575Z,74519
2015-12-11T01:03:39.950Z,74514
2015-12-11T01:03:52.325Z,74507
2015-12-11T01:04:04.687Z,74515
2015-12-11T01:04:17.062Z,74508
2015-12-11T01:04:29.437Z,74496
2015-12-11T01:04:41.812Z,74502
2015-12-11T01:04:54.203Z,74496
2015-12-11T01:05:06.581Z,74497
2015-12-11T01:05:18.847Z,74499
2015-12-11T01:05:31.519Z,74496
2015-12-11T01:05:43.878Z,74495
2015-12-11T01:05:55.534Z,74492
2015-12-11T01:06:07.911Z,74495
2015-12-11T01:06:20.286Z,74501
2015-12-11T01:06:32.630Z,74505
2015-12-11T01:06:44.989Z,74505
2015-12-11T01:06:57.349Z,74508
2015-12-11T01:07:09.711Z,74502
2015-12-11T01:07:22.117Z,74500
2015-12-11T01:07:34.508Z,74504
2015-12-11T01:07:46.867Z,74497
2015-12-11T01:07:59.227Z,74495
2015-12-11T01:08:11.589Z,74492
2015-12-11T01:08:23.948Z,74495
2015-12-11T01:08:36.308Z,74496
2015-12-11T01:08:48.683Z,74500
2015-12-11T01:09:01.042Z,74497
2015-12-11T01:09:13.404Z,74497
2015-12-11T01:09:25.763Z,74504
2015-12-11T01:09:38.138Z,74506
2015-12-11T01:09:50.497Z,74502
2015-12-11T01:10:02.857Z,74506
2015-12-11T01:10:15.220Z,74508
2015-12-11T01:10:27.579Z,74512
2015-12-11T01:10:39.970Z,74510
2015-12-11T01:10:52.345Z,74522
2015-12-11T01:11:04.736Z,74524
2015-12-11T01:11:17.097Z,74519
2015-12-11T01:11:29.519Z,74514
2015-12-11T01:11:41.910Z,74511
2015-12-11T01:11:54.285Z,74500
2015-12-11T01:12:06.675Z,74498
2015-12-11T01:12:19.068Z,74498
2015-12-11T01:12:31.490Z,74495
2015-12-11T01:12:43.865Z,74507
2015-12-11T01:12:56.224Z,74508
2015-12-11T01:13:08.599Z,74511
2015-12-11T01:13:20.946Z,74512
2015-12-11T01:13:33.305Z,74509
2015-12-11T01:13:45.649Z,74512
2015-12-11T01:13:57.993Z,74507
2015-12-11T01:14:10.336Z,74502
2015-12-11T01:14:22.699Z,74496
2015-12-11T01:14:35.074Z,74493
2015-12-11T01:14:47.433Z,74492
2015-12-11T01:14:59.621Z,74484
2015-12-11T01:15:11.980Z,74478
2015-12-11T01:15:24.342Z,74488
2015-12-11T01:15:36.717Z,74491
2015-12-11T01:15:49.077Z,74492
2015-12-11T01:16:01.436Z,74494
2015-12-11T01:16:13.811Z,74494
2015-12-11T01:16:26.188Z,74496
2015-12-11T01:16:38.563Z,74500
2015-12-11T01:16:50.969Z,74496
2015-12-11T01:17:03.344Z,74505
2015-12-11T01:17:15.751Z,74505
2015-12-11T01:17:28.130Z,74503
2015-12-11T01:17:40.380Z,74495
2015-12-11T01:17:52.770Z,74489
2015-12-11T01:18:05.145Z,74491
2015-12-11T01:18:17.536Z,74493
2015-12-11T01:18:29.897Z,74487
2015-12-11T01:18:42.257Z,74498
2015-12-11T01:18:54.616Z,74501
2015-12-11T01:19:06.819Z,74499
2015-12-11T01:19:19.163Z,74496
2015-12-11T01:19:31.541Z,74486
2015-12-11T01:19:43.900Z,74484
2015-12-11T01:19:56.260Z,74492
2015-12-11T01:20:08.619Z,74493
2015-12-11T01:20:20.994Z,74494
2015-12-11T01:20:33.341Z,74496
2015-12-11T01:20:45.700Z,74500
2015-12-11T01:20:58.091Z,74507
2015-12-11T01:21:10.450Z,74502
2015-12-11T01:21:22.825Z,74494
2015-12-11T01:21:35.177Z,74492
2015-12-11T01:21:47.552Z,74494
2015-12-11T01:21:59.911Z,74494
2015-12-11T01:22:38.724Z,74483
2015-12-11T01:22:51.005Z,74467
2015-12-11T01:23:03.365Z,74476
2015-12-11T01:23:15.708Z,74480
2015-12-11T01:23:28.083Z,74484
2015-12-11T01:23:40.430Z,74476
2015-12-11T01:23:52.789Z,74491
2015-12-11T01:24:05.149Z,74506
2015-12-11T01:24:17.524Z,74511
2015-12-11T01:24:29.883Z,74514
2015-12-11T01:24:42.230Z,74491
2015-12-11T01:24:54.590Z,74488
2015-12-11T01:25:06.824Z,74471
2015-12-11T01:25:19.183Z,74477
2015-12-11T01:25:31.558Z,74483
2015-12-11T01:25:43.201Z,74485
2015-12-11T01:25:55.576Z,74495
2015-12-11T01:26:07.951Z,74494
2015-12-11T01:26:20.341Z,74497
2015-12-11T01:26:32.732Z,74500
2015-12-11T01:26:45.120Z,74498
2015-12-11T01:26:57.495Z,74499
2015-12-11T01:27:09.901Z,74500
2015-12-11T01:27:22.291Z,74499
2015-12-11T01:27:34.682Z,74497
2015-12-11T01:27:47.085Z,74503
2015-12-11T01:27:59.445Z,74504
2015-12-11T01:28:11.804Z,74497
2015-12-11T01:28:24.304Z,74493
2015-12-11T01:28:36.663Z,74495
2015-12-11T01:28:49.020Z,74500
2015-12-11T01:29:01.379Z,74505
2015-12-11T01:29:13.739Z,74500
2015-12-11T01:29:26.098Z,74498
2015-12-11T01:29:38.457Z,74493
2015-12-11T01:29:50.829Z,74497
2015-12-11T01:30:03.189Z,74500
2015-12-11T01:30:15.548Z,74502
2015-12-11T01:30:27.751Z,74499
2015-12-11T01:30:40.142Z,74507
2015-12-11T01:30:52.515Z,74506
2015-12-11T01:31:04.171Z,74502
2015-12-11T01:31:16.546Z,74502
2015-12-11T01:31:28.921Z,74505
2015-12-11T01:31:41.312Z,74508
2015-12-11T01:31:53.702Z,74506
2015-12-11T01:32:06.077Z,74504
2015-12-11T01:32:18.499Z,74506
2015-12-11T01:32:30.890Z,74507
2015-12-11T01:32:43.280Z,74501
2015-12-11T01:32:54.969Z,74501
2015-12-11T01:33:07.360Z,74505
2015-12-11T01:33:19.719Z,74506
2015-12-11T01:33:32.078Z,74503
2015-12-11T01:33:44.438Z,74501
2015-12-11T01:33:56.798Z,74501
2015-12-11T01:34:09.157Z,74502
2015-12-11T01:34:21.517Z,74507
2015-12-11T01:34:33.876Z,74507
2015-12-11T01:34:46.220Z,74514
2015-12-11T01:34:58.580Z,74517
2015-12-11T01:35:10.955Z,74517
2015-12-11T01:35:23.299Z,74495
2015-12-11T01:35:35.674Z,74496
2015-12-11T01:35:47.315Z,74505
2015-12-11T01:35:59.691Z,74503
2015-12-11T01:36:12.050Z,74509
2015-12-11T01:36:24.425Z,74510
2015-12-11T01:36:36.800Z,74510
2015-12-11T01:36:49.175Z,74516
2015-12-11T01:37:01.568Z,74513
2015-12-11T01:37:13.958Z,74512
2015-12-11T01:37:26.365Z,74511
2015-12-11T01:37:38.740Z,74512
2015-12-11T01:37:51.146Z,74515
2015-12-11T01:38:03.538Z,74514
2015-12-11T01:38:15.757Z,74516
2015-12-11T01:38:28.179Z,74514
2015-12-11T01:38:40.523Z,74510
2015-12-11T01:38:52.882Z,74504
2015-12-11T01:39:05.243Z,74511
2015-12-11T01:39:17.586Z,74505
2015-12-11T01:39:29.946Z,74505
2015-12-11T01:39:42.321Z,74503
2015-12-11T01:39:54.680Z,74511
2015-12-11T01:40:07.058Z,74525
2015-12-11T01:40:19.417Z,74513
2015-12-11T01:40:31.792Z,74514
2015-12-11T01:40:44.152Z,74504
2015-12-11T01:40:56.511Z,74500
2015-12-11T01:41:08.857Z,74500
2015-12-11T01:41:21.248Z,74513
2015-12-11T01:41:33.623Z,74511
2015-12-11T01:41:45.982Z,74501
2015-12-11T01:41:58.357Z,74497
2015-12-11T01:42:10.735Z,74503
2015-12-11T01:42:23.110Z,74507
2015-12-11T01:42:35.501Z,74501
2015-12-11T01:42:47.891Z,74504
2015-12-11T01:43:00.266Z,74507
2015-12-11T01:43:12.673Z,74504
2015-12-11T01:43:25.064Z,74502
2015-12-11T01:43:37.455Z,74505
2015-12-11T01:43:49.845Z,74510
2015-12-11T01:44:02.189Z,74505
2015-12-11T01:44:14.551Z,74509
2015-12-11T01:44:26.208Z,74516
2015-12-11T01:44:38.583Z,74524
2015-12-11T01:44:50.942Z,74510
2015-12-11T01:45:03.317Z,74503
2015-12-11T01:45:15.663Z,74505
2015-12-11T01:45:28.022Z,74506
2015-12-11T01:45:40.413Z,74514
2015-12-11T01:45:52.772Z,74514
2015-12-11T01:46:05.132Z,74507
2015-12-11T01:46:17.494Z,74509
2015-12-11T01:46:29.853Z,74513
2015-12-11T01:46:42.228Z,74512
2015-12-11T01:46:54.306Z,74508
2015-12-11T01:47:06.666Z,74519
2015-12-11T01:47:19.044Z,74512
2015-12-11T01:47:31.419Z,74514
2015-12-11T01:47:43.809Z,74515
2015-12-11T01:47:56.200Z,74507
2015-12-11T01:48:08.591Z,74511
2015-12-11T01:48:20.969Z,74520
2015-12-11T01:48:33.375Z,74521
2015-12-11T01:48:45.766Z,74521
2015-12-11T01:48:58.141Z,74525
2015-12-11T01:49:10.531Z,74522
2015-12-11T01:49:22.908Z,74522
2015-12-11T01:49:35.252Z,74504
2015-12-11T01:49:47.611Z,74510
2015-12-11T01:49:59.955Z,74508
2015-12-11T01:50:12.330Z,74507
2015-12-11T01:50:24.692Z,74511
2015-12-11T01:50:37.052Z,74508
2015-12-11T01:50:49.411Z,74505
2015-12-11T01:51:01.786Z,74512
2015-12-11T01:51:14.130Z,74503
2015-12-11T01:51:26.492Z,74501
2015-12-11T01:51:38.852Z,74508
2015-12-11T01:51:50.492Z,74511
2015-12-11T01:52:02.883Z,74512
2015-12-11T01:52:15.242Z,74517
2015-12-11T01:52:27.479Z,74511
2015-12-11T01:52:39.838Z,74506
2015-12-11T01:52:52.213Z,74501
2015-12-11T01:53:04.604Z,74506
2015-12-11T01:53:16.276Z,74508
2015-12-11T01:53:28.669Z,74506
2015-12-11T01:53:41.075Z,74513
2015-12-11T01:53:53.450Z,74516
2015-12-11T01:54:05.841Z,74515
2015-12-11T01:54:18.247Z,74519
2015-12-11T01:54:30.610Z,74514
2015-12-11T01:54:42.969Z,74509
2015-12-11T01:54:55.328Z,74502
2015-12-11T01:55:07.688Z,74505
2015-12-11T01:55:20.047Z,74501
2015-12-11T01:55:32.424Z,74496
2015-12-11T01:55:44.768Z,74497
2015-12-11T01:55:57.127Z,74506
2015-12-11T01:56:09.502Z,74498
2015-12-11T01:56:21.862Z,74502
2015-12-11T01:56:34.225Z,74503
2015-12-11T01:56:46.569Z,74499
2015-12-11T01:56:58.928Z,74502
2015-12-11T01:57:11.288Z,74499
2015-12-11T01:57:23.647Z,74500
2015-12-11T01:57:36.040Z,74502
2015-12-11T01:57:48.399Z,74493
2015-12-11T01:58:00.790Z,74504
2015-12-11T01:58:13.165Z,74501
2015-12-11T01:58:25.555Z,74501
2015-12-11T01:58:37.933Z,74495
2015-12-11T01:58:50.339Z,74496
2015-12-11T01:59:02.746Z,74500
2015-12-11T01:59:15.136Z,74506
2015-12-11T01:59:27.543Z,74510
2015-12-11T01:59:39.905Z,74504
2015-12-11T01:59:52.249Z,74501
2015-12-11T02:00:04.499Z,74506
2015-12-11T02:00:16.842Z,74514
2015-12-11T02:00:29.202Z,74508
2015-12-11T02:00:41.564Z,74506
2015-12-11T02:00:53.924Z,74494
2015-12-11T02:01:06.283Z,74495
2015-12-11T02:01:18.845Z,74496
2015-12-11T02:01:30.502Z,74507
2015-12-11T02:01:42.863Z,74512
2015-12-11T02:01:55.207Z,74510
2015-12-11T02:02:07.566Z,74504
2015-12-11T02:02:19.926Z,74497
2015-12-11T02:02:32.302Z,74500
2015-12-11T02:02:44.680Z,74504
2015-12-11T02:02:57.039Z,74507
2015-12-11T02:03:09.414Z,74513
2015-12-11T02:03:21.805Z,74523
2015-12-11T02:03:34.180Z,74515
2015-12-11T02:03:46.589Z,74505
2015-12-11T02:03:58.995Z,74501
2015-12-11T02:04:11.386Z,74484
2015-12-11T02:04:23.776Z,74467
2015-12-11T02:04:36.183Z,74478
2015-12-11T02:04:48.561Z,74487
2015-12-11T02:05:00.920Z,74497
2015-12-11T02:05:13.279Z,74499
2015-12-11T02:05:25.639Z,74498
2015-12-11T02:05:37.998Z,74489
2015-12-11T02:05:50.360Z,74481
2015-12-11T02:06:02.720Z,74477
2015-12-11T02:06:15.079Z,74470
2015-12-11T02:06:26.720Z,74470
2015-12-11T02:06:39.079Z,74482
2015-12-11T02:06:51.300Z,74498
2015-12-11T02:07:03.659Z,74490
2015-12-11T02:07:16.034Z,74489
2015-12-11T02:07:28.409Z,74485
2015-12-11T02:07:40.753Z,74488
2015-12-11T02:07:53.131Z,74473
2015-12-11T02:08:05.553Z,74478
2015-12-11T02:08:17.928Z,74483
2015-12-11T02:08:30.303Z,74499
2015-12-11T02:08:42.678Z,74499
2015-12-11T02:08:55.072Z,74504
2015-12-11T02:09:07.447Z,74509
2015-12-11T02:09:19.837Z,74504
2015-12-11T02:09:32.228Z,74498
2015-12-11T02:09:44.634Z,74487
2015-12-11T02:09:57.012Z,74491
2015-12-11T02:10:09.356Z,74484
2015-12-11T02:10:21.715Z,74480
2015-12-11T02:10:34.075Z,74491
2015-12-11T02:10:46.436Z,74501
2015-12-11T02:10:58.795Z,74505
2015-12-11T02:11:11.155Z,74503
2015-12-11T02:11:23.514Z,74487
2015-12-11T02:11:35.873Z,74491
2015-12-11T02:11:47.517Z,74483
2015-12-11T02:11:59.876Z,74483
2015-12-11T02:12:12.236Z,74489
2015-12-11T02:12:24.595Z,74500
2015-12-11T02:12:36.955Z,74506
2015-12-11T02:12:49.317Z,74498
2015-12-11T02:13:01.692Z,74483
2015-12-11T02:13:14.067Z,74491
2015-12-11T02:13:26.426Z,74489
2015-12-11T02:13:38.801Z,74487
2015-12-11T02:13:51.178Z,74490
2015-12-11T02:14:03.585Z,74494
2015-12-11T02:14:15.960Z,74494
2015-12-11T02:14:28.350Z,74492
2015-12-11T02:14:40.585Z,74486
2015-12-11T02:14:52.947Z,74493
2015-12-11T02:15:05.306Z,74497
2015-12-11T02:15:17.666Z,74495
2015-12-11T02:15:30.025Z,74492
2015-12-11T02:15:42.369Z,74490
2015-12-11T02:15:54.731Z,74494
2015-12-11T02:16:07.091Z,74507
2015-12-11T02:16:19.450Z,74502
2015-12-11T02:16:31.809Z,74493
2015-12-11T02:16:44.169Z,74486
2015-12-11T02:16:56.562Z,74486
2015-12-11T02:17:08.922Z,74489
2015-12-11T02:17:21.281Z,74502
2015-12-11T02:17:33.656Z,74495
2015-12-11T02:17:46.031Z,74498
2015-12-11T02:17:58.392Z,74496
2015-12-11T02:18:10.767Z,74503
2015-12-11T02:18:22.424Z,74498
2015-12-11T02:18:34.783Z,74496
2015-12-11T02:18:47.158Z,74490
2015-12-11T02:18:59.567Z,74500
2015-12-11T02:19:11.942Z,74499
2015-12-11T02:19:24.317Z,74492
2015-12-11T02:19:36.739Z,74501
2015-12-11T02:19:49.114Z,74504
2015-12-11T02:20:01.522Z,74495
2015-12-11T02:20:13.913Z,74499
2015-12-11T02:20:26.272Z,74492
2015-12-11T02:20:38.632Z,74499
2015-12-11T02:20:50.991Z,74502
2015-12-11T02:21:02.635Z,74496
2015-12-11T02:21:14.994Z,74494
2015-12-11T02:21:27.369Z,74490
2015-12-11T02:21:39.729Z,74491
2015-12-11T02:21:52.088Z,74481
2015-12-11T02:22:04.450Z,74476
2015-12-11T02:22:16.810Z,74468
2015-12-11T02:22:29.169Z,74469
2015-12-11T02:22:41.528Z,74470
2015-12-11T02:22:53.888Z,74476
2015-12-11T02:23:06.249Z,74479
2015-12-11T02:23:18.624Z,74485
2015-12-11T02:23:30.999Z,74477
2015-12-11T02:23:43.359Z,74480
2015-12-11T02:23:55.734Z,74486
2015-12-11T02:24:08.128Z,74490
2015-12-11T02:24:20.503Z,74496
2015-12-11T02:24:32.909Z,74496
2015-12-11T02:24:45.284Z,74504
2015-12-11T02:24:57.675Z,74497
2015-12-11T02:25:10.069Z,74483
2015-12-11T02:25:22.428Z,74482
2015-12-11T02:25:34.787Z,74484
2015-12-11T02:25:47.147Z,74483
2015-12-11T02:25:59.506Z,74488
2015-12-11T02:26:11.868Z,74484
2015-12-11T02:26:24.227Z,74488
2015-12-11T02:26:35.868Z,74486
2015-12-11T02:26:48.227Z,74487
2015-12-11T02:27:00.430Z,74482
2015-12-11T02:27:12.808Z,74484
2015-12-11T02:27:25.152Z,74489
2015-12-11T02:27:37.511Z,74490
2015-12-11T02:27:49.871Z,74503
2015-12-11T02:28:02.230Z,74494
2015-12-11T02:28:14.608Z,74495
2015-12-11T02:28:26.983Z,74494
2015-12-11T02:28:39.358Z,74490
2015-12-11T02:28:51.733Z,74496
2015-12-11T02:29:04.108Z,74498
2015-12-11T02:29:16.502Z,74495
2015-12-11T02:29:28.892Z,74503
2015-12-11T02:29:41.283Z,74493
2015-12-11T02:29:53.658Z,74485
2015-12-11T02:30:06.064Z,74494
2015-12-11T02:30:18.472Z,74488
2015-12-11T02:30:30.863Z,74485
2015-12-11T02:30:43.269Z,74482
2015-12-11T02:30:55.644Z,74488
2015-12-11T02:31:07.988Z,74498
2015-12-11T02:31:20.350Z,74505
2015-12-11T02:31:32.710Z,74498
2015-12-11T02:31:45.085Z,74488
2015-12-11T02:31:57.428Z,74482
2015-12-11T02:32:09.788Z,74482
2015-12-11T02:32:22.149Z,74478
2015-12-11T02:32:34.352Z,74495
2015-12-11T02:32:46.727Z,74501
2015-12-11T02:32:59.118Z,74499
2015-12-11T02:33:11.493Z,74487
2015-12-11T02:33:23.855Z,74486
2015-12-11T02:33:36.215Z,74484
2015-12-11T02:33:48.590Z,74484
2015-12-11T02:34:00.965Z,74486
2015-12-11T02:34:13.340Z,74479
2015-12-11T02:34:25.718Z,74481
2015-12-11T02:34:38.108Z,74485
2015-12-11T02:34:50.499Z,74485
2015-12-11T02:35:02.890Z,74484
2015-12-11T02:35:15.280Z,74484
2015-12-11T02:35:27.674Z,74474
2015-12-11T02:35:40.064Z,74481
2015-12-11T02:35:52.455Z,74492
2015-12-11T02:36:04.846Z,74490
2015-12-11T02:36:17.205Z,74481
2015-12-11T02:36:29.552Z,74479
2015-12-11T02:36:41.771Z,74487
2015-12-11T02:36:54.130Z,74482
2015-12-11T02:37:06.489Z,74496
2015-12-11T02:37:18.849Z,74484
2015-12-11T02:37:31.211Z,74483
2015-12-11T02:37:43.570Z,74488
2015-12-11T02:37:55.930Z,74491
2015-12-11T02:38:08.289Z,74481
2015-12-11T02:38:20.649Z,74492
2015-12-11T02:38:33.010Z,74484
2015-12-11T02:38:45.369Z,74484
2015-12-11T02:38:57.744Z,74487
2015-12-11T02:39:10.104Z,74487
2015-12-11T02:39:22.479Z,74486